sensor_id;sensor_type;location;lat;lon;timestamp;pressure;altitude;pressure_sealevel;temperature;humidity
64933;BME280;51446;53.850;10.662;2024-02-14T00:01:54;101540.50;;;5.82;100.00
64933;BME280;51446;53.850;10.662;2024-02-14T00:04:20;101536.69;;;5.73;100.00
64933;BME280;51446;53.850;10.662;2024-02-14T00:06:46;101531.91;;;5.83;100.00
64933;BME280;51446;53.850;10.662;2024-02-14T00:09:11;101523.47;;;5.88;100.00
64933;BME280;51446;53.850;10.662;2024-02-14T00:11:37;101530.56;;;5.73;100.00
64933;BME280;51446;53.850;10.662;2024-02-14T00:14:02;101514.72;;;5.68;100.00
64933;BME280;51446;53.850;10.662;2024-02-14T00:16:28;101522.69;;;5.71;100.00
64933;BME280;51446;53.850;10.662;2024-02-14T00:18:55;101529.47;;;5.68;100.00
64933;BME280;51446;53.850;10.662;2024-02-14T00:21:21;101527.59;;;5.65;100.00
64933;BME280;51446;53.850;10.662;2024-02-14T00:23:47;101526.03;;;5.69;100.00
64933;BME280;51446;53.850;10.662;2024-02-14T00:26:12;101523.44;;;5.51;100.00
64933;BME280;51446;53.850;10.662;2024-02-14T00:28:38;101527.19;;;5.56;100.00
64933;BME280;51446;53.850;10.662;2024-02-14T00:31:03;101523.88;;;5.42;100.00
64933;BME280;51446;53.850;10.662;2024-02-14T00:33:28;101523.16;;;5.45;100.00
64933;BME280;51446;53.850;10.662;2024-02-14T00:35:54;101517.56;;;5.37;100.00
64933;BME280;51446;53.850;10.662;2024-02-14T00:38:19;101513.94;;;5.33;100.00
64933;BME280;51446;53.850;10.662;2024-02-14T00:40:44;101518.91;;;5.29;100.00
64933;BME280;51446;53.850;10.662;2024-02-14T00:43:09;101510.34;;;5.13;100.00
64933;BME280;51446;53.850;10.662;2024-02-14T00:45:35;101514.56;;;5.11;100.00
64933;BME280;51446;53.850;10.662;2024-02-14T00:48:01;101507.38;;;5.24;100.00
64933;BME280;51446;53.850;10.662;2024-02-14T00:50:28;101514.53;;;5.28;100.00
64933;BME280;51446;53.850;10.662;2024-02-14T00:52:54;101515.91;;;5.21;100.00
64933;BME280;51446;53.850;10.662;2024-02-14T00:55:19;101507.00;;;5.16;100.00
64933;BME280;51446;53.850;10.662;2024-02-14T00:57:44;101505.22;;;5.15;100.00
64933;BME280;51446;53.850;10.662;2024-02-14T01:00:10;101510.94;;;5.08;100.00
64933;BME280;51446;53.850;10.662;2024-02-14T01:02:35;101508.69;;;5.15;100.00
64933;BME280;51446;53.850;10.662;2024-02-14T01:05:00;101493.25;;;5.00;100.00
64933;BME280;51446;53.850;10.662;2024-02-14T01:07:26;101499.72;;;5.09;100.00
64933;BME280;51446;53.850;10.662;2024-02-14T01:09:51;101493.97;;;4.98;100.00
64933;BME280;51446;53.850;10.662;2024-02-14T01:12:16;101496.56;;;4.98;100.00
64933;BME280;51446;53.850;10.662;2024-02-14T01:14:42;101483.72;;;5.01;100.00
64933;BME280;51446;53.850;10.662;2024-02-14T01:17:07;101485.16;;;4.94;100.00
64933;BME280;51446;53.850;10.662;2024-02-14T01:19:33;101489.75;;;5.00;100.00
64933;BME280;51446;53.850;10.662;2024-02-14T01:21:58;101495.09;;;5.03;100.00
64933;BME280;51446;53.850;10.662;2024-02-14T01:24:24;101497.19;;;5.10;100.00
64933;BME280;51446;53.850;10.662;2024-02-14T01:26:51;101503.06;;;5.06;100.00
64933;BME280;51446;53.850;10.662;2024-02-14T01:29:19;101499.66;;;5.07;100.00
64933;BME280;51446;53.850;10.662;2024-02-14T01:31:44;101492.25;;;4.98;100.00
64933;BME280;51446;53.850;10.662;2024-02-14T01:34:09;101481.97;;;5.00;100.00
64933;BME280;51446;53.850;10.662;2024-02-14T01:36:34;101490.28;;;4.93;100.00
64933;BME280;51446;53.850;10.662;2024-02-14T01:39:00;101481.44;;;5.07;100.00
64933;BME280;51446;53.850;10.662;2024-02-14T01:41:25;101475.78;;;4.98;100.00
64933;BME280;51446;53.850;10.662;2024-02-14T01:43:50;101477.16;;;4.91;100.00
64933;BME280;51446;53.850;10.662;2024-02-14T01:46:16;101477.94;;;4.89;100.00
64933;BME280;51446;53.850;10.662;2024-02-14T01:48:42;101472.16;;;4.94;100.00
64933;BME280;51446;53.850;10.662;2024-02-14T01:51:08;101467.06;;;4.79;100.00
64933;BME280;51446;53.850;10.662;2024-02-14T01:53:36;101460.09;;;4.78;100.00
64933;BME280;51446;53.850;10.662;2024-02-14T01:56:02;101462.72;;;4.96;100.00
64933;BME280;51446;53.850;10.662;2024-02-14T01:58:29;101457.72;;;4.83;100.00
64933;BME280;51446;53.850;10.662;2024-02-14T02:00:55;101460.69;;;4.73;100.00
64933;BME280;51446;53.850;10.662;2024-02-14T02:03:23;101460.31;;;4.83;100.00
64933;BME280;51446;53.850;10.662;2024-02-14T02:05:48;101450.06;;;4.86;100.00
64933;BME280;51446;53.850;10.662;2024-02-14T02:08:14;101458.69;;;4.85;100.00
64933;BME280;51446;53.850;10.662;2024-02-14T02:10:39;101459.03;;;4.75;100.00
64933;BME280;51446;53.850;10.662;2024-02-14T02:13:05;101448.78;;;4.78;100.00
64933;BME280;51446;53.850;10.662;2024-02-14T02:15:30;101449.84;;;4.81;100.00
64933;BME280;51446;53.850;10.662;2024-02-14T02:17:55;101448.22;;;4.83;100.00
64933;BME280;51446;53.850;10.662;2024-02-14T02:20:21;101447.09;;;4.78;100.00
64933;BME280;51446;53.850;10.662;2024-02-14T02:22:47;101442.34;;;4.88;100.00
64933;BME280;51446;53.850;10.662;2024-02-14T02:25:15;101445.47;;;4.80;100.00
64933;BME280;51446;53.850;10.662;2024-02-14T02:27:40;101437.22;;;4.71;100.00
64933;BME280;51446;53.850;10.662;2024-02-14T02:30:06;101441.56;;;4.72;100.00
64933;BME280;51446;53.850;10.662;2024-02-14T02:32:32;101443.44;;;4.75;100.00
64933;BME280;51446;53.850;10.662;2024-02-14T02:34:57;101435.56;;;4.73;100.00
64933;BME280;51446;53.850;10.662;2024-02-14T02:37:23;101435.19;;;4.65;100.00
64933;BME280;51446;53.850;10.662;2024-02-14T02:39:49;101442.63;;;4.76;100.00
64933;BME280;51446;53.850;10.662;2024-02-14T02:42:14;101441.00;;;4.78;100.00
64933;BME280;51446;53.850;10.662;2024-02-14T02:44:39;101441.28;;;4.66;100.00
64933;BME280;51446;53.850;10.662;2024-02-14T02:47:05;101437.81;;;4.65;100.00
64933;BME280;51446;53.850;10.662;2024-02-14T02:49:30;101441.47;;;4.53;100.00
64933;BME280;51446;53.850;10.662;2024-02-14T02:51:55;101434.78;;;4.58;100.00
64933;BME280;51446;53.850;10.662;2024-02-14T02:54:21;101432.78;;;4.52;100.00
64933;BME280;51446;53.850;10.662;2024-02-14T02:56:49;101431.75;;;4.48;100.00
64933;BME280;51446;53.850;10.662;2024-02-14T02:59:14;101432.41;;;4.44;100.00
64933;BME280;51446;53.850;10.662;2024-02-14T03:01:42;101423.53;;;4.41;100.00
64933;BME280;51446;53.850;10.662;2024-02-14T03:04:07;101423.38;;;4.38;100.00
64933;BME280;51446;53.850;10.662;2024-02-14T03:06:33;101425.25;;;4.40;100.00
64933;BME280;51446;53.850;10.662;2024-02-14T03:08:58;101424.88;;;4.32;100.00
64933;BME280;51446;53.850;10.662;2024-02-14T03:11:24;101419.84;;;4.36;100.00
64933;BME280;51446;53.850;10.662;2024-02-14T03:13:51;101409.78;;;4.25;100.00
64933;BME280;51446;53.850;10.662;2024-02-14T03:16:16;101417.09;;;4.32;100.00
64933;BME280;51446;53.850;10.662;2024-02-14T03:18:42;101418.13;;;4.36;100.00
64933;BME280;51446;53.850;10.662;2024-02-14T03:21:08;101412.22;;;4.22;100.00
64933;BME280;51446;53.850;10.662;2024-02-14T03:23:33;101416.94;;;4.29;100.00
64933;BME280;51446;53.850;10.662;2024-02-14T03:25:58;101418.63;;;4.29;100.00
64933;BME280;51446;53.850;10.662;2024-02-14T03:28:24;101417.25;;;4.19;100.00
64933;BME280;51446;53.850;10.662;2024-02-14T03:30:50;101419.59;;;4.14;100.00
64933;BME280;51446;53.850;10.662;2024-02-14T03:33:15;101397.56;;;4.06;100.00
64933;BME280;51446;53.850;10.662;2024-02-14T03:35:40;101410.13;;;4.15;100.00
64933;BME280;51446;53.850;10.662;2024-02-14T03:38:08;101408.03;;;4.08;100.00
64933;BME280;51446;53.850;10.662;2024-02-14T03:40:34;101406.47;;;4.11;100.00
64933;BME280;51446;53.850;10.662;2024-02-14T03:43:01;101404.03;;;4.14;100.00
64933;BME280;51446;53.850;10.662;2024-02-14T03:45:26;101399.91;;;4.18;100.00
64933;BME280;51446;53.850;10.662;2024-02-14T03:47:55;101406.28;;;4.25;100.00
64933;BME280;51446;53.850;10.662;2024-02-14T03:50:21;101401.00;;;4.23;100.00
64933;BME280;51446;53.850;10.662;2024-02-14T03:52:47;101398.97;;;4.34;100.00
64933;BME280;51446;53.850;10.662;2024-02-14T03:55:13;101391.13;;;4.16;100.00
64933;BME280;51446;53.850;10.662;2024-02-14T03:57:38;101396.47;;;4.19;100.00
64933;BME280;51446;53.850;10.662;2024-02-14T04:00:04;101392.28;;;4.21;100.00
64933;BME280;51446;53.850;10.662;2024-02-14T04:02:33;101393.88;;;4.19;100.00
64933;BME280;51446;53.850;10.662;2024-02-14T04:04:58;101385.38;;;4.22;100.00
64933;BME280;51446;53.850;10.662;2024-02-14T04:07:23;101382.47;;;4.15;100.00
64933;BME280;51446;53.850;10.662;2024-02-14T04:09:49;101386.81;;;4.33;100.00
64933;BME280;51446;53.850;10.662;2024-02-14T04:12:14;101390.09;;;4.12;100.00
64933;BME280;51446;53.850;10.662;2024-02-14T04:14:39;101385.94;;;4.16;100.00
64933;BME280;51446;53.850;10.662;2024-02-14T04:17:06;101381.66;;;4.16;100.00
64933;BME280;51446;53.850;10.662;2024-02-14T04:19:36;101377.34;;;4.17;100.00
64933;BME280;51446;53.850;10.662;2024-02-14T04:22:01;101375.97;;;4.07;100.00
64933;BME280;51446;53.850;10.662;2024-02-14T04:24:26;101375.09;;;4.07;100.00
64933;BME280;51446;53.850;10.662;2024-02-14T04:26:54;101375.50;;;3.98;100.00
64933;BME280;51446;53.850;10.662;2024-02-14T04:29:21;101378.91;;;3.97;100.00
64933;BME280;51446;53.850;10.662;2024-02-14T04:31:46;101366.81;;;3.97;100.00
64933;BME280;51446;53.850;10.662;2024-02-14T04:34:14;101377.38;;;4.01;100.00
64933;BME280;51446;53.850;10.662;2024-02-14T04:36:40;101380.06;;;4.02;100.00
64933;BME280;51446;53.850;10.662;2024-02-14T04:39:05;101375.59;;;3.99;100.00
64933;BME280;51446;53.850;10.662;2024-02-14T04:41:31;101378.59;;;3.91;100.00
64933;BME280;51446;53.850;10.662;2024-02-14T04:43:56;101372.56;;;3.92;100.00
64933;BME280;51446;53.850;10.662;2024-02-14T04:46:22;101374.50;;;3.96;100.00
64933;BME280;51446;53.850;10.662;2024-02-14T04:48:47;101370.66;;;3.88;100.00
64933;BME280;51446;53.850;10.662;2024-02-14T04:51:13;101370.81;;;3.91;100.00
64933;BME280;51446;53.850;10.662;2024-02-14T04:53:38;101375.88;;;4.06;100.00
64933;BME280;51446;53.850;10.662;2024-02-14T04:56:04;101358.63;;;3.90;100.00
64933;BME280;51446;53.850;10.662;2024-02-14T04:58:30;101350.28;;;3.95;100.00
64933;BME280;51446;53.850;10.662;2024-02-14T05:00:55;101364.41;;;4.01;100.00
64933;BME280;51446;53.850;10.662;2024-02-14T05:03:21;101368.03;;;4.04;100.00
64933;BME280;51446;53.850;10.662;2024-02-14T05:05:49;101366.72;;;3.96;100.00
64933;BME280;51446;53.850;10.662;2024-02-14T05:08:14;101345.50;;;3.87;100.00
64933;BME280;51446;53.850;10.662;2024-02-14T05:10:39;101366.09;;;4.00;100.00
64933;BME280;51446;53.850;10.662;2024-02-14T05:13:05;101354.50;;;3.93;100.00
64933;BME280;51446;53.850;10.662;2024-02-14T05:15:31;101364.53;;;3.87;100.00
64933;BME280;51446;53.850;10.662;2024-02-14T05:17:56;101349.78;;;4.03;100.00
64933;BME280;51446;53.850;10.662;2024-02-14T05:20:21;101354.97;;;4.03;100.00
64933;BME280;51446;53.850;10.662;2024-02-14T05:22:47;101354.75;;;3.98;100.00
64933;BME280;51446;53.850;10.662;2024-02-14T05:25:13;101344.69;;;3.88;100.00
64933;BME280;51446;53.850;10.662;2024-02-14T05:27:39;101350.94;;;4.08;100.00
64933;BME280;51446;53.850;10.662;2024-02-14T05:30:04;101348.91;;;4.02;100.00
64933;BME280;51446;53.850;10.662;2024-02-14T05:32:31;101347.19;;;4.03;100.00
64933;BME280;51446;53.850;10.662;2024-02-14T05:34:56;101342.34;;;3.92;100.00
64933;BME280;51446;53.850;10.662;2024-02-14T05:37:21;101335.94;;;4.02;100.00
64933;BME280;51446;53.850;10.662;2024-02-14T05:39:46;101340.78;;;4.12;100.00
64933;BME280;51446;53.850;10.662;2024-02-14T05:42:12;101335.81;;;4.17;100.00
64933;BME280;51446;53.850;10.662;2024-02-14T05:44:37;101335.03;;;4.02;100.00
64933;BME280;51446;53.850;10.662;2024-02-14T05:47:02;101335.81;;;4.17;100.00
64933;BME280;51446;53.850;10.662;2024-02-14T05:49:28;101345.47;;;4.03;100.00
64933;BME280;51446;53.850;10.662;2024-02-14T05:51:53;101329.53;;;3.95;100.00
64933;BME280;51446;53.850;10.662;2024-02-14T05:54:19;101331.69;;;4.04;100.00
64933;BME280;51446;53.850;10.662;2024-02-14T05:56:46;101327.81;;;3.96;100.00
64933;BME280;51446;53.850;10.662;2024-02-14T05:59:11;101337.53;;;4.00;100.00
64933;BME280;51446;53.850;10.662;2024-02-14T06:01:37;101331.94;;;4.09;100.00
64933;BME280;51446;53.850;10.662;2024-02-14T06:04:03;101316.84;;;4.02;100.00
64933;BME280;51446;53.850;10.662;2024-02-14T06:06:28;101309.78;;;4.15;100.00
64933;BME280;51446;53.850;10.662;2024-02-14T06:08:54;101311.31;;;4.12;100.00
64933;BME280;51446;53.850;10.662;2024-02-14T06:11:20;101319.94;;;4.11;100.00
64933;BME280;51446;53.850;10.662;2024-02-14T06:13:47;101326.50;;;4.21;100.00
64933;BME280;51446;53.850;10.662;2024-02-14T06:16:13;101316.63;;;4.13;100.00
64933;BME280;51446;53.850;10.662;2024-02-14T06:18:39;101316.84;;;4.18;100.00
64933;BME280;51446;53.850;10.662;2024-02-14T06:21:05;101314.75;;;4.29;100.00
64933;BME280;51446;53.850;10.662;2024-02-14T06:23:32;101308.22;;;4.19;100.00
64933;BME280;51446;53.850;10.662;2024-02-14T06:25:58;101310.31;;;4.26;100.00
64933;BME280;51446;53.850;10.662;2024-02-14T06:28:24;101292.88;;;4.24;100.00
64933;BME280;51446;53.850;10.662;2024-02-14T06:30:50;101303.03;;;4.19;100.00
64933;BME280;51446;53.850;10.662;2024-02-14T06:33:15;101309.34;;;4.24;100.00
64933;BME280;51446;53.850;10.662;2024-02-14T06:35:41;101307.19;;;4.15;100.00
64933;BME280;51446;53.850;10.662;2024-02-14T06:38:06;101301.03;;;4.13;100.00
64933;BME280;51446;53.850;10.662;2024-02-14T06:40:32;101307.03;;;4.12;100.00
64933;BME280;51446;53.850;10.662;2024-02-14T06:42:58;101310.91;;;4.21;100.00
64933;BME280;51446;53.850;10.662;2024-02-14T06:45:28;101308.22;;;4.19;100.00
64933;BME280;51446;53.850;10.662;2024-02-14T06:47:55;101301.41;;;4.21;100.00
64933;BME280;51446;53.850;10.662;2024-02-14T06:50:20;101304.59;;;4.33;100.00
64933;BME280;51446;53.850;10.662;2024-02-14T06:52:45;101294.06;;;4.30;100.00
64933;BME280;51446;53.850;10.662;2024-02-14T06:55:11;101314.53;;;4.24;100.00
64933;BME280;51446;53.850;10.662;2024-02-14T06:57:36;101311.41;;;4.13;100.00
64933;BME280;51446;53.850;10.662;2024-02-14T07:00:03;101299.78;;;4.23;100.00
64933;BME280;51446;53.850;10.662;2024-02-14T07:02:31;101319.28;;;4.33;100.00
64933;BME280;51446;53.850;10.662;2024-02-14T07:04:56;101311.44;;;4.31;100.00
64933;BME280;51446;53.850;10.662;2024-02-14T07:07:23;101312.38;;;4.33;100.00
64933;BME280;51446;53.850;10.662;2024-02-14T07:09:48;101303.50;;;4.28;100.00
64933;BME280;51446;53.850;10.662;2024-02-14T07:12:13;101304.53;;;4.32;100.00
64933;BME280;51446;53.850;10.662;2024-02-14T07:14:38;101303.22;;;4.40;100.00
64933;BME280;51446;53.850;10.662;2024-02-14T07:17:04;101305.66;;;4.37;100.00
64933;BME280;51446;53.850;10.662;2024-02-14T07:19:30;101308.63;;;4.27;100.00
64933;BME280;51446;53.850;10.662;2024-02-14T07:21:56;101308.84;;;4.31;100.00
64933;BME280;51446;53.850;10.662;2024-02-14T07:24:21;101308.63;;;4.27;100.00
64933;BME280;51446;53.850;10.662;2024-02-14T07:26:47;101305.28;;;4.29;100.00
64933;BME280;51446;53.850;10.662;2024-02-14T07:29:13;101306.53;;;4.38;100.00
64933;BME280;51446;53.850;10.662;2024-02-14T07:31:39;101301.09;;;4.49;100.00
64933;BME280;51446;53.850;10.662;2024-02-14T07:34:04;101294.84;;;4.46;100.00
64933;BME280;51446;53.850;10.662;2024-02-14T07:36:30;101300.03;;;4.46;100.00
64933;BME280;51446;53.850;10.662;2024-02-14T07:38:55;101303.75;;;4.51;100.00
64933;BME280;51446;53.850;10.662;2024-02-14T07:41:21;101296.84;;;4.51;100.00
64933;BME280;51446;53.850;10.662;2024-02-14T07:43:46;101299.72;;;4.58;100.00
64933;BME280;51446;53.850;10.662;2024-02-14T07:46:19;101297.53;;;4.65;100.00
64933;BME280;51446;53.850;10.662;2024-02-14T07:48:45;101295.00;;;4.67;100.00
64933;BME280;51446;53.850;10.662;2024-02-14T07:51:11;101290.53;;;4.64;100.00
64933;BME280;51446;53.850;10.662;2024-02-14T07:53:37;101272.25;;;4.45;100.00
64933;BME280;51446;53.850;10.662;2024-02-14T07:56:02;101289.19;;;4.55;100.00
64933;BME280;51446;53.850;10.662;2024-02-14T07:58:28;101288.59;;;4.60;100.00
64933;BME280;51446;53.850;10.662;2024-02-14T08:00:54;101290.97;;;4.74;100.00
64933;BME280;51446;53.850;10.662;2024-02-14T08:03:20;101283.53;;;4.63;100.00
64933;BME280;51446;53.850;10.662;2024-02-14T08:05:45;101289.13;;;4.71;100.00
64933;BME280;51446;53.850;10.662;2024-02-14T08:08:10;101284.00;;;4.73;100.00
64933;BME280;51446;53.850;10.662;2024-02-14T08:10:36;101284.53;;;4.65;100.00
64933;BME280;51446;53.850;10.662;2024-02-14T08:13:01;101273.53;;;4.71;100.00
64933;BME280;51446;53.850;10.662;2024-02-14T08:15:29;101281.47;;;4.74;100.00
64933;BME280;51446;53.850;10.662;2024-02-14T08:17:54;101283.31;;;4.77;100.00
64933;BME280;51446;53.850;10.662;2024-02-14T08:20:22;101282.34;;;4.75;100.00
64933;BME280;51446;53.850;10.662;2024-02-14T08:22:49;101279.75;;;4.75;100.00
64933;BME280;51446;53.850;10.662;2024-02-14T08:25:14;101274.97;;;4.84;100.00
64933;BME280;51446;53.850;10.662;2024-02-14T08:27:39;101275.66;;;4.98;100.00
64933;BME280;51446;53.850;10.662;2024-02-14T08:30:05;101276.69;;;5.01;100.00
64933;BME280;51446;53.850;10.662;2024-02-14T08:32:34;101286.09;;;4.99;100.00
64933;BME280;51446;53.850;10.662;2024-02-14T08:34:59;101286.91;;;4.98;100.00
64933;BME280;51446;53.850;10.662;2024-02-14T08:37:24;101278.09;;;4.95;100.00
64933;BME280;51446;53.850;10.662;2024-02-14T08:39:50;101278.44;;;5.02;100.00
64933;BME280;51446;53.850;10.662;2024-02-14T08:42:15;101272.16;;;4.97;100.00
64933;BME280;51446;53.850;10.662;2024-02-14T08:44:40;101267.31;;;5.05;100.00
64933;BME280;51446;53.850;10.662;2024-02-14T08:47:06;101279.50;;;5.06;100.00
64933;BME280;51446;53.850;10.662;2024-02-14T08:49:31;101270.97;;;5.09;100.00
64933;BME280;51446;53.850;10.662;2024-02-14T08:51:57;101277.84;;;5.08;100.00
64933;BME280;51446;53.850;10.662;2024-02-14T08:54:22;101281.84;;;5.19;100.00
64933;BME280;51446;53.850;10.662;2024-02-14T08:56:48;101289.34;;;5.13;100.00
64933;BME280;51446;53.850;10.662;2024-02-14T08:59:13;101275.38;;;5.11;100.00
64933;BME280;51446;53.850;10.662;2024-02-14T09:01:39;101280.56;;;5.11;100.00
64933;BME280;51446;53.850;10.662;2024-02-14T09:04:05;101262.81;;;5.20;100.00
64933;BME280;51446;53.850;10.662;2024-02-14T09:06:30;101274.03;;;5.19;100.00
64933;BME280;51446;53.850;10.662;2024-02-14T09:08:57;101279.16;;;5.18;100.00
64933;BME280;51446;53.850;10.662;2024-02-14T09:11:22;101274.53;;;5.30;100.00
64933;BME280;51446;53.850;10.662;2024-02-14T09:13:48;101271.81;;;5.27;100.00
64933;BME280;51446;53.850;10.662;2024-02-14T09:16:16;101276.78;;;5.42;100.00
64933;BME280;51446;53.850;10.662;2024-02-14T09:18:41;101278.16;;;5.34;100.00
64933;BME280;51446;53.850;10.662;2024-02-14T09:21:07;101267.06;;;5.38;100.00
64933;BME280;51446;53.850;10.662;2024-02-14T09:23:33;101260.16;;;5.38;100.00
64933;BME280;51446;53.850;10.662;2024-02-14T09:25:59;101277.31;;;5.54;100.00
64933;BME280;51446;53.850;10.662;2024-02-14T09:28:24;101280.19;;;5.41;100.00
64933;BME280;51446;53.850;10.662;2024-02-14T09:30:53;101275.06;;;5.43;100.00
64933;BME280;51446;53.850;10.662;2024-02-14T09:33:19;101279.91;;;5.54;100.00
64933;BME280;51446;53.850;10.662;2024-02-14T09:35:45;101282.41;;;5.71;100.00
64933;BME280;51446;53.850;10.662;2024-02-14T09:38:12;101275.94;;;5.82;100.00
64933;BME280;51446;53.850;10.662;2024-02-14T09:40:40;101280.72;;;5.73;100.00
64933;BME280;51446;53.850;10.662;2024-02-14T09:43:13;101281.03;;;5.79;100.00
64933;BME280;51446;53.850;10.662;2024-02-14T09:45:42;101269.00;;;5.83;100.00
64933;BME280;51446;53.850;10.662;2024-02-14T09:48:08;101273.91;;;5.96;100.00
64933;BME280;51446;53.850;10.662;2024-02-14T09:50:34;101272.22;;;5.97;100.00
64933;BME280;51446;53.850;10.662;2024-02-14T09:53:02;101265.63;;;6.05;100.00
64933;BME280;51446;53.850;10.662;2024-02-14T09:55:27;101268.81;;;6.19;100.00
64933;BME280;51446;53.850;10.662;2024-02-14T09:57:54;101272.59;;;6.25;100.00
64933;BME280;51446;53.850;10.662;2024-02-14T10:00:20;101264.44;;;6.18;100.00
64933;BME280;51446;53.850;10.662;2024-02-14T10:02:46;101246.59;;;6.06;100.00
64933;BME280;51446;53.850;10.662;2024-02-14T10:05:11;101269.88;;;6.22;100.00
64933;BME280;51446;53.850;10.662;2024-02-14T10:07:41;101275.31;;;6.29;100.00
64933;BME280;51446;53.850;10.662;2024-02-14T10:10:07;101271.25;;;6.35;100.00
64933;BME280;51446;53.850;10.662;2024-02-14T10:12:33;101275.16;;;6.47;100.00
64933;BME280;51446;53.850;10.662;2024-02-14T10:14:58;101273.13;;;6.60;100.00
64933;BME280;51446;53.850;10.662;2024-02-14T10:17:23;101278.16;;;6.56;100.00
64933;BME280;51446;53.850;10.662;2024-02-14T10:19:58;101271.97;;;6.54;100.00
64933;BME280;51446;53.850;10.662;2024-02-14T10:22:24;101282.28;;;6.51;100.00
64933;BME280;51446;53.850;10.662;2024-02-14T10:24:50;101276.69;;;6.63;100.00
64933;BME280;51446;53.850;10.662;2024-02-14T10:27:15;101277.63;;;6.65;100.00
64933;BME280;51446;53.850;10.662;2024-02-14T10:29:40;101283.47;;;6.59;100.00
64933;BME280;51446;53.850;10.662;2024-02-14T10:32:07;101281.19;;;6.67;100.00
64933;BME280;51446;53.850;10.662;2024-02-14T10:34:33;101274.63;;;6.55;100.00
64933;BME280;51446;53.850;10.662;2024-02-14T10:36:58;101282.19;;;6.70;100.00
64933;BME280;51446;53.850;10.662;2024-02-14T10:39:26;101276.50;;;6.58;100.00
64933;BME280;51446;53.850;10.662;2024-02-14T10:41:52;101275.31;;;6.72;100.00
64933;BME280;51446;53.850;10.662;2024-02-14T10:44:17;101277.97;;;6.74;100.00
64933;BME280;51446;53.850;10.662;2024-02-14T10:46:44;101281.84;;;6.84;100.00
64933;BME280;51446;53.850;10.662;2024-02-14T10:49:10;101289.13;;;6.92;100.00
64933;BME280;51446;53.850;10.662;2024-02-14T10:51:38;101288.00;;;7.08;100.00
64933;BME280;51446;53.850;10.662;2024-02-14T10:54:12;101283.97;;;7.17;100.00
64933;BME280;51446;53.850;10.662;2024-02-14T10:56:41;101286.41;;;7.12;100.00
64933;BME280;51446;53.850;10.662;2024-02-14T10:59:11;101282.44;;;7.22;100.00
64933;BME280;51446;53.850;10.662;2024-02-14T11:01:38;101277.88;;;7.40;100.00
64933;BME280;51446;53.850;10.662;2024-02-14T11:04:04;101286.13;;;7.51;100.00
64933;BME280;51446;53.850;10.662;2024-02-14T11:06:30;101278.25;;;7.50;100.00
64933;BME280;51446;53.850;10.662;2024-02-14T11:09:03;101282.81;;;7.55;100.00
64933;BME280;51446;53.850;10.662;2024-02-14T11:11:33;101284.28;;;7.49;100.00
64933;BME280;51446;53.850;10.662;2024-02-14T11:13:58;101286.56;;;7.39;100.00
64933;BME280;51446;53.850;10.662;2024-02-14T11:16:28;101280.69;;;7.45;100.00
64933;BME280;51446;53.850;10.662;2024-02-14T11:19:05;101275.47;;;7.45;100.00
64933;BME280;51446;53.850;10.662;2024-02-14T11:21:35;101280.97;;;7.53;100.00
64933;BME280;51446;53.850;10.662;2024-02-14T11:24:04;101266.72;;;7.44;100.00
64933;BME280;51446;53.850;10.662;2024-02-14T11:26:38;101284.03;;;7.65;100.00
64933;BME280;51446;53.850;10.662;2024-02-14T11:29:03;101273.78;;;7.71;100.00
64933;BME280;51446;53.850;10.662;2024-02-14T11:31:35;101280.75;;;7.71;100.00
64933;BME280;51446;53.850;10.662;2024-02-14T11:34:05;101275.88;;;7.81;100.00
64933;BME280;51446;53.850;10.662;2024-02-14T11:36:32;101280.28;;;7.82;100.00
64933;BME280;51446;53.850;10.662;2024-02-14T11:38:58;101273.94;;;7.76;100.00
64933;BME280;51446;53.850;10.662;2024-02-14T11:41:23;101282.94;;;7.84;100.00
64933;BME280;51446;53.850;10.662;2024-02-14T11:43:52;101279.63;;;7.88;100.00
64933;BME280;51446;53.850;10.662;2024-02-14T11:46:17;101274.00;;;7.77;100.00
64933;BME280;51446;53.850;10.662;2024-02-14T11:48:43;101283.97;;;7.89;100.00
64933;BME280;51446;53.850;10.662;2024-02-14T11:51:11;101273.03;;;7.99;100.00
64933;BME280;51446;53.850;10.662;2024-02-14T11:53:38;101275.09;;;8.08;100.00
64933;BME280;51446;53.850;10.662;2024-02-14T11:56:05;101277.06;;;8.15;100.00
64933;BME280;51446;53.850;10.662;2024-02-14T11:58:30;101279.28;;;8.05;100.00
64933;BME280;51446;53.850;10.662;2024-02-14T12:00:56;101281.72;;;8.24;100.00
64933;BME280;51446;53.850;10.662;2024-02-14T12:03:22;101281.72;;;8.24;100.00
64933;BME280;51446;53.850;10.662;2024-02-14T12:05:50;101289.44;;;8.21;100.00
64933;BME280;51446;53.850;10.662;2024-02-14T12:08:16;101286.88;;;8.23;100.00
64933;BME280;51446;53.850;10.662;2024-02-14T12:10:43;101288.63;;;8.24;100.00
64933;BME280;51446;53.850;10.662;2024-02-14T12:13:12;101281.84;;;8.29;100.00
64933;BME280;51446;53.850;10.662;2024-02-14T12:15:48;101282.50;;;8.22;100.00
64933;BME280;51446;53.850;10.662;2024-02-14T12:18:13;101285.28;;;8.28;100.00
64933;BME280;51446;53.850;10.662;2024-02-14T12:20:39;101285.34;;;8.29;100.00
64933;BME280;51446;53.850;10.662;2024-02-14T12:23:05;101282.97;;;8.36;100.00
64933;BME280;51446;53.850;10.662;2024-02-14T12:25:31;101294.94;;;8.55;100.00
64933;BME280;51446;53.850;10.662;2024-02-14T12:27:57;101298.00;;;8.43;100.00
64933;BME280;51446;53.850;10.662;2024-02-14T12:30:41;101291.16;;;8.46;100.00
64933;BME280;51446;53.850;10.662;2024-02-14T12:33:07;101292.03;;;8.47;100.00
64933;BME280;51446;53.850;10.662;2024-02-14T12:35:34;101296.50;;;8.49;100.00